Time;durP1;ratioP1;P1;durP2;ratioP2;P2;SDS_P1;SDS_P2;PMS_P1;PMS_P2;Temp;Humidity;BMP_temperature;BMP_pressure;BME280_temperature;BME280_humidity;BME280_pressure;Samples;Min_cycle;Max_cycle;Signal;HPM_P1;HPM_P2
2024/01/04 00:02:08;;;;;;;;;;;;;;;;;;109741;1249;58055;-80
2024/01/04 00:04:35;;;;;;;;;;;;;;;;;;109722;1250;58163;-80
2024/01/04 00:07:01;;;;;;;;;;;;;;;;;;109589;1251;58448;-80
2024/01/04 00:09:27;;;;;;;;;;;;;;;;;;109736;1250;58047;-80
2024/01/04 00:11:54;;;;;;;;;;;;;;;;;;109655;1250;58057;-80
2024/01/04 00:14:20;;;;;;;;;;;;;;;;;;109677;1253;58267;-80
2024/01/04 00:16:46;;;;;;;;;;;;;;;;;;109702;1253;58033;-80
2024/01/04 00:19:13;;;;;;;;;;;;;;;;;;109694;1250;58212;-80
2024/01/04 00:21:39;;;;;;;;;;;;;;;;;;109716;1251;58149;-81
2024/01/04 00:24:06;;;;;;;;;;;;;;;;;;109698;1251;58270;-81
2024/01/04 00:26:33;;;;;;;;;;;;;;;;;;109286;1251;58960;-80
2024/01/04 00:28:59;;;;;;;;;;;;;;;;;;107663;1251;60077;-81
2024/01/04 00:31:25;;;;;;;;;;;;;;;;;;107656;1251;59073;-81
2024/01/04 00:33:52;;;;;;;;;;;;;;;;;;107584;1251;59488;-81
2024/01/04 00:36:18;;;;;;;;;;;;;;;;;;107557;1250;58726;-80
2024/01/04 00:38:45;;;;;;;;;;;;;;;;;;107573;1251;59012;-82
2024/01/04 00:41:11;;;;;;;;;;;;;;;;;;107525;1251;59016;-80
2024/01/04 00:43:38;;;;;;;;;;;;;;;;;;107725;1254;60046;-80
2024/01/04 00:46:04;;;;;;;;;;;;;;;;;;107540;1251;59167;-80
2024/01/04 00:48:30;;;;;;;;;;;;;;;;;;107402;1254;60066;-80
2024/01/04 00:50:58;;;;;;;;;;;;;;;;;;107475;1250;58936;-81
2024/01/04 00:53:24;;;;;;;;;;;;;;;;;;107537;1251;59044;-80
2024/01/04 00:55:50;;;;;;;;;;;;;;;;;;107507;1251;58880;-81
2024/01/04 00:58:17;;;;;;;;;;;;;;;;;;107632;1251;60192;-80
2024/01/04 01:00:43;;;;;;;;;;;;;;;;;;107564;1251;58970;-80
2024/01/04 01:03:09;;;;;;;;;;;;;;;;;;107556;1251;59024;-80
2024/01/04 01:05:36;;;;;;;;;;;;;;;;;;107546;1251;59103;-80
2024/01/04 01:08:02;;;;;;;;;;;;;;;;;;107543;1251;59134;-80
2024/01/04 01:10:29;;;;;;;;;;;;;;;;;;107496;1251;59016;-80
2024/01/04 01:12:56;;;;;;;;;;;;;;;;;;107113;1251;59881;-80
2024/01/04 01:15:22;;;;;;;;;;;;;;;;;;107078;1251;60033;-81
2024/01/04 01:17:48;;;;;;;;;;;;;;;;;;106974;1255;61281;-80
2024/01/04 01:20:15;;;;;;;;;;;;;;;;;;107032;1253;59114;-80
2024/01/04 01:22:41;;;;;;;;;;;;;;;;;;107052;1251;58418;-80
2024/01/04 01:25:07;;;;;;;;;;;;;;;;;;107084;1252;58685;-80
2024/01/04 01:27:34;;;;;;;;;;;;;;;;;;107043;1253;59975;-80
2024/01/04 01:30:00;;;;;;;;;;;;;;;;;;107125;1253;59020;-80
2024/01/04 01:32:27;;;;;;;;;;;;;;;;;;107087;1250;60116;-80
2024/01/04 01:34:54;;;;;;;;;;;;;;;;;;107083;1254;59036;-81
2024/01/04 01:37:20;;;;;;;;;;;;;;;;;;107087;1254;59070;-80
2024/01/04 01:39:47;;;;;;;;;;;;;;;;;;107056;1251;60028;-80
2024/01/04 01:42:13;;;;;;;;;;;;;;;;;;107045;1253;59021;-81
2024/01/04 01:44:39;;;;;;;;;;;;;;;;;;107175;1253;59109;-80
2024/01/04 01:47:06;;;;;;;;;;;;;;;;;;107019;1251;58960;-80
2024/01/04 01:49:32;;;;;;;;;;;;;;;;;;107161;1254;59639;-80
2024/01/04 01:51:58;;;;;;;;;;;;;;;;;;107114;1251;59083;-81
2024/01/04 01:54:25;;;;;;;;;;;;;;;;;;107669;1251;60018;-80
2024/01/04 01:56:51;;;;;;;;;;;;;;;;;;107661;1254;58999;-81
2024/01/04 01:59:17;;;;;;;;;;;;;;;;;;107565;1251;59053;-80
2024/01/04 02:01:43;;;;;;;;;;;;;;;;;;107597;1251;59015;-80
2024/01/04 02:04:10;;;;;;;;;;;;;;;;;;107505;1251;58990;-80
2024/01/04 02:06:37;;;;;;;;;;;;;;;;;;107533;1249;60053;-80
2024/01/04 02:09:03;;;;;;;;;;;;;;;;;;107639;1250;59124;-80
2024/01/04 02:11:29;;;;;;;;;;;;;;;;;;107520;1251;60055;-80
2024/01/04 02:13:56;;;;;;;;;;;;;;;;;;107541;1253;60185;-80
2024/01/04 02:16:22;;;;;;;;;;;;;;;;;;107188;1251;60007;-80
2024/01/04 02:18:49;;;;;;;;;;;;;;;;;;107072;1254;59503;-80
2024/01/04 02:21:15;;;;;;;;;;;;;;;;;;107628;1251;58752;-80
2024/01/04 02:23:41;;;;;;;;;;;;;;;;;;107012;1253;59771;-80
2024/01/04 02:26:07;;;;;;;;;;;;;;;;;;107118;1251;58933;-80
2024/01/04 02:28:34;;;;;;;;;;;;;;;;;;107268;1251;58480;-80
2024/01/04 02:31:00;;;;;;;;;;;;;;;;;;107022;1253;60006;-80
2024/01/04 02:33:26;;;;;;;;;;;;;;;;;;107048;1251;60187;-80
2024/01/04 02:35:53;;;;;;;;;;;;;;;;;;107129;1251;59016;-80
2024/01/04 02:38:19;;;;;;;;;;;;;;;;;;107130;1251;60062;-80
2024/01/04 02:40:46;;;;;;;;;;;;;;;;;;107226;1254;59102;-82
2024/01/04 02:43:13;;;;;;;;;;;;;;;;;;107264;1251;59076;-80
2024/01/04 02:45:39;;;;;;;;;;;;;;;;;;107479;1250;60173;-80
2024/01/04 02:48:05;;;;;;;;;;;;;;;;;;107671;1251;58449;-80
2024/01/04 02:50:31;;;;;;;;;;;;;;;;;;107776;1251;59506;-80
2024/01/04 02:52:58;;;;;;;;;;;;;;;;;;107532;1251;59473;-80
2024/01/04 02:55:24;;;;;;;;;;;;;;;;;;107651;1251;60127;-80
2024/01/04 02:57:51;;;;;;;;;;;;;;;;;;107545;1250;58885;-80
2024/01/04 03:00:17;;;;;;;;;;;;;;;;;;107585;1253;59093;-80
2024/01/04 03:02:44;;;;;;;;;;;;;;;;;;107656;1250;59804;-80
2024/01/04 03:05:10;;;;;;;;;;;;;;;;;;107741;1251;59008;-80
2024/01/04 03:07:36;;;;;;;;;;;;;;;;;;107665;1251;60068;-80
2024/01/04 03:10:02;;;;;;;;;;;;;;;;;;107547;1251;59085;-80
2024/01/04 03:12:29;;;;;;;;;;;;;;;;;;107478;1251;58917;-80
2024/01/04 03:14:57;;;;;;;;;;;;;;;;;;109649;1250;58506;-80
2024/01/04 03:17:23;;;;;;;;;;;;;;;;;;109673;1253;58196;-80
2024/01/04 03:19:50;;;;;;;;;;;;;;;;;;109670;1249;58351;-81
2024/01/04 03:22:16;;;;;;;;;;;;;;;;;;108157;1250;60020;-80
2024/01/04 03:24:42;;;;;;;;;;;;;;;;;;107567;1253;58343;-80
2024/01/04 03:27:12;;;;;;;;;;;;;;;;;;107644;1251;59003;-80
2024/01/04 03:29:38;;;;;;;;;;;;;;;;;;107600;1250;60909;-81
2024/01/04 03:32:05;;;;;;;;;;;;;;;;;;107611;1251;58628;-81
2024/01/04 03:34:31;;;;;;;;;;;;;;;;;;107558;1251;59429;-81
2024/01/04 03:36:58;;;;;;;;;;;;;;;;;;109020;1251;60042;-80
2024/01/04 03:39:24;;;;;;;;;;;;;;;;;;109677;1249;58340;-80
2024/01/04 03:41:50;;;;;;;;;;;;;;;;;;109682;1249;58059;-80
2024/01/04 03:44:16;;;;;;;;;;;;;;;;;;109731;1251;58052;-80
2024/01/04 03:46:43;;;;;;;;;;;;;;;;;;109751;1251;58185;-80
2024/01/04 03:49:11;;;;;;;;;;;;;;;;;;109747;1250;58399;-80
2024/01/04 03:51:37;;;;;;;;;;;;;;;;;;109750;1250;58061;-80
2024/01/04 03:54:03;;;;;;;;;;;;;;;;;;108074;1250;58781;-80
2024/01/04 03:56:30;;;;;;;;;;;;;;;;;;107063;1251;58711;-80
2024/01/04 03:58:56;;;;;;;;;;;;;;;;;;106978;1250;59999;-80
2024/01/04 04:01:22;;;;;;;;;;;;;;;;;;107577;1251;59019;-80
2024/01/04 04:03:49;;;;;;;;;;;;;;;;;;107656;1251;59014;-81
2024/01/04 04:06:15;;;;;;;;;;;;;;;;;;107534;1251;59016;-80
2024/01/04 04:08:41;;;;;;;;;;;;;;;;;;107602;1251;59025;-80
2024/01/04 04:11:08;;;;;;;;;;;;;;;;;;107665;1250;60062;-80
2024/01/04 04:13:34;;;;;;;;;;;;;;;;;;107641;1249;59772;-80
2024/01/04 04:16:00;;;;;;;;;;;;;;;;;;107043;1251;59042;-80
2024/01/04 04:18:27;;;;;;;;;;;;;;;;;;107213;1250;60197;-80
2024/01/04 04:20:53;;;;;;;;;;;;;;;;;;107148;1253;60103;-80
2024/01/04 04:23:19;;;;;;;;;;;;;;;;;;107049;1251;60057;-80
2024/01/04 04:25:46;;;;;;;;;;;;;;;;;;107080;1251;60076;-80
2024/01/04 04:28:12;;;;;;;;;;;;;;;;;;106991;1250;59975;-81
2024/01/04 04:30:38;;;;;;;;;;;;;;;;;;107109;1253;59047;-80
2024/01/04 04:33:05;;;;;;;;;;;;;;;;;;107006;1251;59856;-80
2024/01/04 04:35:31;;;;;;;;;;;;;;;;;;107011;1251;59082;-80
2024/01/04 04:37:57;;;;;;;;;;;;;;;;;;107070;1250;59853;-80
2024/01/04 04:40:24;;;;;;;;;;;;;;;;;;107094;1251;59117;-80
2024/01/04 04:42:50;;;;;;;;;;;;;;;;;;107103;1251;58787;-81
2024/01/04 04:45:16;;;;;;;;;;;;;;;;;;107124;1251;58944;-80
2024/01/04 04:47:43;;;;;;;;;;;;;;;;;;107091;1251;60180;-80
2024/01/04 04:50:09;;;;;;;;;;;;;;;;;;107231;1251;59053;-81
2024/01/04 04:52:35;;;;;;;;;;;;;;;;;;107125;1251;58895;-80
2024/01/04 04:55:02;;;;;;;;;;;;;;;;;;107000;1251;59020;-81
2024/01/04 04:57:28;;;;;;;;;;;;;;;;;;107077;1250;58714;-80
2024/01/04 04:59:54;;;;;;;;;;;;;;;;;;107179;1250;60267;-81
2024/01/04 05:02:21;;;;;;;;;;;;;;;;;;107002;1250;59096;-80
2024/01/04 05:04:47;;;;;;;;;;;;;;;;;;107174;1251;58950;-80
2024/01/04 05:07:13;;;;;;;;;;;;;;;;;;107035;1250;58372;-80
2024/01/04 05:09:40;;;;;;;;;;;;;;;;;;107064;1250;60010;-80
2024/01/04 05:12:07;;;;;;;;;;;;;;;;;;107056;1250;59582;-80
2024/01/04 05:14:33;;;;;;;;;;;;;;;;;;108762;1250;58538;-80
2024/01/04 05:16:59;;;;;;;;;;;;;;;;;;109680;1249;58398;-80
2024/01/04 05:19:26;;;;;;;;;;;;;;;;;;109641;1249;58134;-80
2024/01/04 05:21:52;;;;;;;;;;;;;;;;;;109674;1249;58283;-80
2024/01/04 05:24:18;;;;;;;;;;;;;;;;;;109648;1250;58474;-80
2024/01/04 05:26:45;;;;;;;;;;;;;;;;;;109682;1249;58095;-80
2024/01/04 05:29:11;;;;;;;;;;;;;;;;;;109501;1250;58420;-80
2024/01/04 05:31:38;;;;;;;;;;;;;;;;;;107050;1251;59065;-80
2024/01/04 05:34:04;;;;;;;;;;;;;;;;;;107007;1251;61029;-80
2024/01/04 05:36:31;;;;;;;;;;;;;;;;;;107035;1253;60070;-80
2024/01/04 05:38:57;;;;;;;;;;;;;;;;;;107163;1250;59982;-80
2024/01/04 05:41:23;;;;;;;;;;;;;;;;;;108571;1251;59956;-80
2024/01/04 05:43:50;;;;;;;;;;;;;;;;;;109782;1251;58078;-80
2024/01/04 05:46:16;;;;;;;;;;;;;;;;;;109777;1250;58390;-81
2024/01/04 05:48:43;;;;;;;;;;;;;;;;;;109731;1250;58100;-81
2024/01/04 05:51:09;;;;;;;;;;;;;;;;;;109805;1250;58144;-80
2024/01/04 05:53:36;;;;;;;;;;;;;;;;;;109736;1251;58235;-80
2024/01/04 05:56:02;;;;;;;;;;;;;;;;;;109676;1249;58076;-80
2024/01/04 05:58:28;;;;;;;;;;;;;;;;;;108622;1249;58975;-80
2024/01/04 06:00:55;;;;;;;;;;;;;;;;;;107009;1250;59086;-81
2024/01/04 06:03:21;;;;;;;;;;;;;;;;;;107331;1254;59009;-81
2024/01/04 06:05:47;;;;;;;;;;;;;;;;;;107166;1251;60051;-81
2024/01/04 06:08:14;;;;;;;;;;;;;;;;;;107094;1251;59773;-81
2024/01/04 06:10:40;;;;;;;;;;;;;;;;;;107531;1250;61184;-81
2024/01/04 06:13:07;;;;;;;;;;;;;;;;;;107685;1250;59016;-81
2024/01/04 06:15:34;;;;;;;;;;;;;;;;;;107919;1253;59039;-81
2024/01/04 06:18:00;;;;;;;;;;;;;;;;;;107848;1249;59543;-81
2024/01/04 06:20:27;;;;;;;;;;;;;;;;;;108380;1250;58641;-81
2024/01/04 06:22:53;;;;;;;;;;;;;;;;;;107825;1250;60207;-80
2024/01/04 06:25:20;;;;;;;;;;;;;;;;;;107710;1250;59553;-81
2024/01/04 06:27:46;;;;;;;;;;;;;;;;;;107584;1251;58417;-81
2024/01/04 06:30:12;;;;;;;;;;;;;;;;;;107792;1251;59247;-81
2024/01/04 06:32:39;;;;;;;;;;;;;;;;;;107851;1250;59086;-81
2024/01/04 06:35:05;;;;;;;;;;;;;;;;;;107517;1250;235545;-80
2024/01/04 06:37:32;;;;;;;;;;;;;;;;;;108221;1250;58908;-80
2024/01/04 06:39:58;;;;;;;;;;;;;;;;;;109664;1249;58363;-80
2024/01/04 06:42:24;;;;;;;;;;;;;;;;;;109565;1251;58025;-81
2024/01/04 06:44:51;;;;;;;;;;;;;;;;;;109531;1250;58374;-80
2024/01/04 06:47:17;;;;;;;;;;;;;;;;;;109784;1250;60130;-81
2024/01/04 06:49:43;;;;;;;;;;;;;;;;;;109880;1251;58083;-81
2024/01/04 06:52:10;;;;;;;;;;;;;;;;;;109758;1249;59680;-80
2024/01/04 06:54:36;;;;;;;;;;;;;;;;;;108845;1249;59196;-81
2024/01/04 06:57:06;;;;;;;;;;;;;;;;;;107726;1250;59024;-81
2024/01/04 06:59:32;;;;;;;;;;;;;;;;;;107820;1249;60610;-80
2024/01/04 07:01:58;;;;;;;;;;;;;;;;;;107878;1250;60138;-81
2024/01/04 07:04:25;;;;;;;;;;;;;;;;;;108144;1251;60067;-81
2024/01/04 07:06:51;;;;;;;;;;;;;;;;;;107666;1253;58779;-80
2024/01/04 07:09:17;;;;;;;;;;;;;;;;;;107921;1250;58950;-80
2024/01/04 07:11:44;;;;;;;;;;;;;;;;;;107751;1250;59122;-80
2024/01/04 07:14:10;;;;;;;;;;;;;;;;;;107797;1250;59027;-80
2024/01/04 07:16:36;;;;;;;;;;;;;;;;;;107581;1250;58392;-80
2024/01/04 07:19:03;;;;;;;;;;;;;;;;;;107618;1250;61077;-80
2024/01/04 07:21:29;;;;;;;;;;;;;;;;;;107140;1250;58970;-80
2024/01/04 07:23:55;;;;;;;;;;;;;;;;;;107471;1254;59990;-79
2024/01/04 07:26:22;;;;;;;;;;;;;;;;;;108713;1251;59108;-80
2024/01/04 07:28:48;;;;;;;;;;;;;;;;;;109595;1250;58359;-80
2024/01/04 07:31:14;;;;;;;;;;;;;;;;;;109557;1250;58481;-80
2024/01/04 07:33:41;;;;;;;;;;;;;;;;;;109717;1253;58463;-80
2024/01/04 07:36:07;;;;;;;;;;;;;;;;;;109524;1251;58347;-80
2024/01/04 07:38:34;;;;;;;;;;;;;;;;;;109617;1250;58062;-80
2024/01/04 07:41:02;;;;;;;;;;;;;;;;;;109625;1248;58077;-81
2024/01/04 07:43:28;;;;;;;;;;;;;;;;;;109710;1249;58023;-80
2024/01/04 07:45:55;;;;;;;;;;;;;;;;;;109661;1249;58095;-80
2024/01/04 07:48:21;;;;;;;;;;;;;;;;;;109658;1249;58081;-80
2024/01/04 07:50:47;;;;;;;;;;;;;;;;;;109632;1250;59454;-80
2024/01/04 07:53:14;;;;;;;;;;;;;;;;;;107585;1250;59945;-80
2024/01/04 07:55:40;;;;;;;;;;;;;;;;;;107423;1251;59931;-80
2024/01/04 07:58:07;;;;;;;;;;;;;;;;;;107259;1250;60058;-80
2024/01/04 08:00:34;;;;;;;;;;;;;;;;;;107438;1250;59019;-80
2024/01/04 08:03:00;;;;;;;;;;;;;;;;;;107377;1250;60139;-80
2024/01/04 08:05:27;;;;;;;;;;;;;;;;;;107531;1250;59552;-80
2024/01/04 08:07:56;;;;;;;;;;;;;;;;;;107403;1251;59024;-80
2024/01/04 08:10:23;;;;;;;;;;;;;;;;;;107544;1250;60364;-80
2024/01/04 08:12:49;;;;;;;;;;;;;;;;;;107481;1250;59382;-80
2024/01/04 08:15:16;;;;;;;;;;;;;;;;;;107467;1250;60179;-81
2024/01/04 08:17:42;;;;;;;;;;;;;;;;;;107352;1250;58983;-80
2024/01/04 08:20:09;;;;;;;;;;;;;;;;;;107445;1251;60029;-80
2024/01/04 08:22:35;;;;;;;;;;;;;;;;;;107953;1249;58444;-80
2024/01/04 08:25:02;;;;;;;;;;;;;;;;;;107873;1250;60074;-81
2024/01/04 08:27:28;;;;;;;;;;;;;;;;;;107988;1249;58937;-80
2024/01/04 08:29:54;;;;;;;;;;;;;;;;;;108082;1253;60129;-80
2024/01/04 08:32:21;;;;;;;;;;;;;;;;;;108051;1250;58940;-81
2024/01/04 08:34:47;;;;;;;;;;;;;;;;;;107983;1251;58411;-80
2024/01/04 08:37:14;;;;;;;;;;;;;;;;;;108207;1250;58686;-80
2024/01/04 08:39:41;;;;;;;;;;;;;;;;;;108579;1248;60764;-80
2024/01/04 08:42:07;;;;;;;;;;;;;;;;;;108544;1250;59093;-81
2024/01/04 08:44:33;;;;;;;;;;;;;;;;;;108747;1249;59109;-80
2024/01/04 08:47:00;;;;;;;;;;;;;;;;;;108835;1249;58645;-81
2024/01/04 08:49:26;;;;;;;;;;;;;;;;;;108957;1250;59144;-80
2024/01/04 08:51:52;;;;;;;;;;;;;;;;;;108270;1250;59121;-80
2024/01/04 08:54:19;;;;;;;;;;;;;;;;;;108165;1249;59293;-80
2024/01/04 08:56:45;;;;;;;;;;;;;;;;;;108167;1250;59539;-81
2024/01/04 08:59:11;;;;;;;;;;;;;;;;;;108290;1250;58525;-81
2024/01/04 09:01:38;;;;;;;;;;;;;;;;;;108086;1250;59026;-81
2024/01/04 09:04:04;;;;;;;;;;;;;;;;;;108039;1250;59032;-83
2024/01/04 09:06:33;;;;;;;;;;;;;;;;;;108009;1254;60146;-80
2024/01/04 09:08:59;;;;;;;;;;;;;;;;;;108141;1249;58673;-81
2024/01/04 09:11:26;;;;;;;;;;;;;;;;;;108248;1253;59734;-81
2024/01/04 09:13:52;;;;;;;;;;;;;;;;;;108154;1250;59087;-81
2024/01/04 09:16:18;;;;;;;;;;;;;;;;;;107909;1254;59000;-81
2024/01/04 09:18:45;;;;;;;;;;;;;;;;;;108041;1249;59196;-81
2024/01/04 09:21:11;;;;;;;;;;;;;;;;;;108119;1249;58802;-80
2024/01/04 09:23:37;;;;;;;;;;;;;;;;;;107757;1250;58821;-81
2024/01/04 09:26:08;;;;;;;;;;;;;;;;;;107649;1249;59394;-80
2024/01/04 09:28:35;;;;;;;;;;;;;;;;;;107911;1250;58932;-80
2024/01/04 09:31:01;;;;;;;;;;;;;;;;;;107743;1248;58904;-80
2024/01/04 09:33:28;;;;;;;;;;;;;;;;;;107535;1250;59838;-80
2024/01/04 09:35:54;;;;;;;;;;;;;;;;;;107402;1250;58940;-80
2024/01/04 09:38:20;;;;;;;;;;;;;;;;;;107595;1251;58626;-80
2024/01/04 09:40:47;;;;;;;;;;;;;;;;;;107752;1251;60085;-81
2024/01/04 09:43:15;;;;;;;;;;;;;;;;;;107862;1250;59973;-80
2024/01/04 09:45:42;;;;;;;;;;;;;;;;;;107636;1250;58871;-80
2024/01/04 09:48:09;;;;;;;;;;;;;;;;;;107661;1251;58912;-81
2024/01/04 09:50:37;;;;;;;;;;;;;;;;;;107836;1250;59026;-81
2024/01/04 09:53:03;;;;;;;;;;;;;;;;;;107637;1250;59140;-81
2024/01/04 09:55:30;;;;;;;;;;;;;;;;;;107642;1249;59913;-80
2024/01/04 09:57:59;;;;;;;;;;;;;;;;;;107585;1250;60866;-80
2024/01/04 10:00:25;;;;;;;;;;;;;;;;;;107696;1250;59770;-80
2024/01/04 10:02:52;;;;;;;;;;;;;;;;;;107716;1250;60156;-80
2024/01/04 10:05:18;;;;;;;;;;;;;;;;;;107562;1250;58849;-80
2024/01/04 10:07:45;;;;;;;;;;;;;;;;;;107637;1253;60110;-80
2024/01/04 10:10:11;;;;;;;;;;;;;;;;;;107778;1250;61295;-80
2024/01/04 10:12:37;;;;;;;;;;;;;;;;;;107124;1250;59002;-80
2024/01/04 10:15:04;;;;;;;;;;;;;;;;;;107218;1250;59986;-80
2024/01/04 10:17:30;;;;;;;;;;;;;;;;;;107669;1249;59074;-80
2024/01/04 10:19:58;;;;;;;;;;;;;;;;;;107799;1250;60155;-80
2024/01/04 10:22:24;;;;;;;;;;;;;;;;;;107719;1250;59505;-80
2024/01/04 10:24:51;;;;;;;;;;;;;;;;;;107575;1250;58667;-80
2024/01/04 10:27:17;;;;;;;;;;;;;;;;;;107649;1250;59184;-80
2024/01/04 10:29:48;;;;;;;;;;;;;;;;;;107811;1250;58600;-80
2024/01/04 10:32:14;;;;;;;;;;;;;;;;;;108074;1251;59671;-82
2024/01/04 10:34:41;;;;;;;;;;;;;;;;;;107517;1251;58983;-80
2024/01/04 10:37:08;;;;;;;;;;;;;;;;;;107797;1250;60718;-81
2024/01/04 10:39:34;;;;;;;;;;;;;;;;;;108005;1250;58742;-80
2024/01/04 10:42:01;;;;;;;;;;;;;;;;;;108220;1249;58543;-80
2024/01/04 10:44:28;;;;;;;;;;;;;;;;;;107985;1253;62169;-80
2024/01/04 10:46:55;;;;;;;;;;;;;;;;;;107892;1250;59839;-81
2024/01/04 10:49:21;;;;;;;;;;;;;;;;;;108012;1250;60089;-81
2024/01/04 10:51:47;;;;;;;;;;;;;;;;;;107978;1251;61026;-80
2024/01/04 10:54:14;;;;;;;;;;;;;;;;;;107918;1250;61179;-80
2024/01/04 10:56:40;;;;;;;;;;;;;;;;;;107814;1250;59649;-81
2024/01/04 10:59:06;;;;;;;;;;;;;;;;;;108104;1250;58934;-80
2024/01/04 11:01:33;;;;;;;;;;;;;;;;;;107870;1251;60133;-80
2024/01/04 11:03:59;;;;;;;;;;;;;;;;;;107308;1250;58991;-80
2024/01/04 11:06:28;;;;;;;;;;;;;;;;;;107376;1248;59797;-80
2024/01/04 11:08:56;;;;;;;;;;;;;;;;;;107398;1250;63008;-80
2024/01/04 11:11:22;;;;;;;;;;;;;;;;;;107571;1250;59592;-80
2024/01/04 11:13:48;;;;;;;;;;;;;;;;;;107448;1250;59797;-80
2024/01/04 11:16:15;;;;;;;;;;;;;;;;;;107896;1250;60871;-80
2024/01/04 11:18:42;;;;;;;;;;;;;;;;;;107819;1251;59347;-80
2024/01/04 11:21:08;;;;;;;;;;;;;;;;;;108034;1250;60913;-80
2024/01/04 11:23:34;;;;;;;;;;;;;;;;;;107402;1254;60846;-80
2024/01/04 11:26:01;;;;;;;;;;;;;;;;;;107325;1249;60868;-80
2024/01/04 11:28:27;;;;;;;;;;;;;;;;;;107360;1249;59859;-80
2024/01/04 11:30:53;;;;;;;;;;;;;;;;;;107540;1251;60902;-80
2024/01/04 11:33:23;;;;;;;;;;;;;;;;;;107366;1253;61015;-80
2024/01/04 11:35:49;;;;;;;;;;;;;;;;;;107437;1250;60265;-80
2024/01/04 11:38:16;;;;;;;;;;;;;;;;;;107344;1249;59814;-80
2024/01/04 11:40:42;;;;;;;;;;;;;;;;;;107355;1249;59959;-80
2024/01/04 11:43:10;;;;;;;;;;;;;;;;;;107396;1250;59179;-80
2024/01/04 11:45:36;;;;;;;;;;;;;;;;;;107324;1250;60822;-79
2024/01/04 11:48:03;;;;;;;;;;;;;;;;;;107511;1253;60966;-80
2024/01/04 11:50:29;;;;;;;;;;;;;;;;;;107555;1250;59540;-80
2024/01/04 11:52:55;;;;;;;;;;;;;;;;;;107374;1250;59859;-80
2024/01/04 11:55:23;;;;;;;;;;;;;;;;;;107364;1250;59881;-80
2024/01/04 11:57:49;;;;;;;;;;;;;;;;;;107322;1249;62559;-80
2024/01/04 12:00:16;;;;;;;;;;;;;;;;;;107428;1250;60841;-81
2024/01/04 12:02:42;;;;;;;;;;;;;;;;;;107929;1250;60798;-81
2024/01/04 12:05:08;;;;;;;;;;;;;;;;;;107890;1252;61066;-80
2024/01/04 12:07:35;;;;;;;;;;;;;;;;;;107914;1250;59897;-81
2024/01/04 12:10:01;;;;;;;;;;;;;;;;;;107957;1249;60980;-81
2024/01/04 12:12:28;;;;;;;;;;;;;;;;;;107887;1249;60814;-81
2024/01/04 12:14:55;;;;;;;;;;;;;;;;;;107925;1250;59875;-80
2024/01/04 12:17:21;;;;;;;;;;;;;;;;;;107933;1251;59848;-80
2024/01/04 12:19:48;;;;;;;;;;;;;;;;;;108071;1250;59760;-80
2024/01/04 12:22:14;;;;;;;;;;;;;;;;;;108023;1250;59705;-80
2024/01/04 12:24:42;;;;;;;;;;;;;;;;;;107891;1250;59739;-80
2024/01/04 12:27:09;;;;;;;;;;;;;;;;;;107927;1250;60576;-80
2024/01/04 12:29:35;;;;;;;;;;;;;;;;;;107968;1250;59896;-80
2024/01/04 12:32:02;;;;;;;;;;;;;;;;;;107921;1250;61141;-80
2024/01/04 12:34:29;;;;;;;;;;;;;;;;;;107967;1250;60903;-80
2024/01/04 12:36:55;;;;;;;;;;;;;;;;;;107877;1251;59822;-80
2024/01/04 12:39:21;;;;;;;;;;;;;;;;;;108034;1250;60828;-81
2024/01/04 12:41:48;;;;;;;;;;;;;;;;;;107469;1250;59828;-80
2024/01/04 12:44:14;;;;;;;;;;;;;;;;;;107447;1248;59863;-80
2024/01/04 12:46:43;;;;;;;;;;;;;;;;;;107492;1250;60856;-80
2024/01/04 12:49:09;;;;;;;;;;;;;;;;;;107308;1248;61992;-80
2024/01/04 12:51:37;;;;;;;;;;;;;;;;;;107401;1250;60616;-80
2024/01/04 12:54:03;;;;;;;;;;;;;;;;;;107902;1254;59740;-80
2024/01/04 12:56:30;;;;;;;;;;;;;;;;;;107984;1249;59716;-80
2024/01/04 12:59:00;;;;;;;;;;;;;;;;;;107915;1250;59906;-80
2024/01/04 13:01:27;;;;;;;;;;;;;;;;;;108047;1252;59541;-81
2024/01/04 13:03:54;;;;;;;;;;;;;;;;;;109534;1250;59716;-80
2024/01/04 13:06:20;;;;;;;;;;;;;;;;;;109596;1249;59026;-80
2024/01/04 13:08:47;;;;;;;;;;;;;;;;;;109636;1250;59009;-80
2024/01/04 13:11:13;;;;;;;;;;;;;;;;;;109513;1253;59124;-81
2024/01/04 13:13:39;;;;;;;;;;;;;;;;;;107891;1250;59818;-80
2024/01/04 13:16:06;;;;;;;;;;;;;;;;;;108025;1249;59815;-80
2024/01/04 13:18:32;;;;;;;;;;;;;;;;;;107970;1250;59926;-80
2024/01/04 13:20:58;;;;;;;;;;;;;;;;;;108105;1250;61432;-80
2024/01/04 13:23:25;;;;;;;;;;;;;;;;;;107820;1249;60940;-80
2024/01/04 13:25:52;;;;;;;;;;;;;;;;;;107975;1249;59791;-80
2024/01/04 13:28:18;;;;;;;;;;;;;;;;;;108664;1253;59452;-80
2024/01/04 13:30:44;;;;;;;;;;;;;;;;;;109522;1249;58896;-81
2024/01/04 13:33:11;;;;;;;;;;;;;;;;;;109614;1250;59074;-81
2024/01/04 13:35:37;;;;;;;;;;;;;;;;;;109645;1250;59075;-80
2024/01/04 13:38:03;;;;;;;;;;;;;;;;;;109667;1249;58850;-81
2024/01/04 13:40:30;;;;;;;;;;;;;;;;;;109648;1250;59179;-80
2024/01/04 13:42:56;;;;;;;;;;;;;;;;;;108956;1255;59768;-80
2024/01/04 13:45:22;;;;;;;;;;;;;;;;;;107574;1250;60920;-80
2024/01/04 13:47:49;;;;;;;;;;;;;;;;;;107616;1250;59807;-80
2024/01/04 13:50:15;;;;;;;;;;;;;;;;;;107300;1250;60837;-80
2024/01/04 13:52:42;;;;;;;;;;;;;;;;;;107007;1253;59854;-80
2024/01/04 13:55:11;;;;;;;;;;;;;;;;;;107319;1253;59805;-80
2024/01/04 13:57:37;;;;;;;;;;;;;;;;;;107574;1250;59828;-80
2024/01/04 14:00:04;;;;;;;;;;;;;;;;;;107194;1250;59799;-80
2024/01/04 14:02:30;;;;;;;;;;;;;;;;;;107181;1250;60791;-80
2024/01/04 14:04:57;;;;;;;;;;;;;;;;;;107037;1250;60847;-80
2024/01/04 14:07:23;;;;;;;;;;;;;;;;;;109272;1253;59299;-80
2024/01/04 14:09:49;;;;;;;;;;;;;;;;;;109426;1251;58891;-80
2024/01/04 14:12:16;;;;;;;;;;;;;;;;;;108045;1250;60972;-80
2024/01/04 14:14:42;;;;;;;;;;;;;;;;;;108082;1252;59892;-80
2024/01/04 14:17:09;;;;;;;;;;;;;;;;;;108271;1251;60893;-81
2024/01/04 14:19:35;;;;;;;;;;;;;;;;;;108555;1250;59899;-80
2024/01/04 14:22:03;;;;;;;;;;;;;;;;;;107377;1250;59184;-80
2024/01/04 14:24:30;;;;;;;;;;;;;;;;;;107325;1249;62828;-80
2024/01/04 14:26:56;;;;;;;;;;;;;;;;;;107124;1250;60966;-80
2024/01/04 14:29:22;;;;;;;;;;;;;;;;;;107167;1254;60872;-80
2024/01/04 14:31:50;;;;;;;;;;;;;;;;;;107083;1250;61191;-80
2024/01/04 14:34:17;;;;;;;;;;;;;;;;;;107048;1251;62035;-80
2024/01/04 14:36:44;;;;;;;;;;;;;;;;;;107125;1250;59735;-80
2024/01/04 14:39:11;;;;;;;;;;;;;;;;;;107261;1250;60887;-81
2024/01/04 14:41:38;;;;;;;;;;;;;;;;;;107374;1250;61723;-80
2024/01/04 14:44:04;;;;;;;;;;;;;;;;;;107218;1250;59516;-80
2024/01/04 14:46:30;;;;;;;;;;;;;;;;;;107548;1253;60913;-83
2024/01/04 14:48:57;;;;;;;;;;;;;;;;;;108041;1253;59754;-80
2024/01/04 14:51:23;;;;;;;;;;;;;;;;;;108744;1249;59248;-80
2024/01/04 14:53:49;;;;;;;;;;;;;;;;;;109595;1250;59262;-80
2024/01/04 14:56:20;;;;;;;;;;;;;;;;;;109574;1250;58973;-80
2024/01/04 14:58:47;;;;;;;;;;;;;;;;;;109546;1250;58889;-80
2024/01/04 15:01:15;;;;;;;;;;;;;;;;;;109571;1250;58884;-81
2024/01/04 15:03:41;;;;;;;;;;;;;;;;;;109637;1250;59464;-81
2024/01/04 15:06:08;;;;;;;;;;;;;;;;;;107819;1250;60514;-81
2024/01/04 15:08:34;;;;;;;;;;;;;;;;;;107663;1252;59806;-81
2024/01/04 15:11:01;;;;;;;;;;;;;;;;;;107812;1250;59822;-81
2024/01/04 15:13:27;;;;;;;;;;;;;;;;;;107789;1250;59912;-81
2024/01/04 15:15:53;;;;;;;;;;;;;;;;;;107999;1250;60996;-81
2024/01/04 15:18:20;;;;;;;;;;;;;;;;;;107742;1250;59766;-80
2024/01/04 15:20:46;;;;;;;;;;;;;;;;;;107972;1250;59711;-80
2024/01/04 15:23:13;;;;;;;;;;;;;;;;;;107823;1250;60162;-80
2024/01/04 15:25:39;;;;;;;;;;;;;;;;;;107745;1251;60730;-80
2024/01/04 15:28:09;;;;;;;;;;;;;;;;;;107668;1251;60723;-80
2024/01/04 15:30:36;;;;;;;;;;;;;;;;;;107381;1255;60359;-80
2024/01/04 15:33:02;;;;;;;;;;;;;;;;;;107988;1250;59744;-80
2024/01/04 15:35:29;;;;;;;;;;;;;;;;;;107881;1250;59736;-80
2024/01/04 15:37:55;;;;;;;;;;;;;;;;;;107456;1250;59796;-80
2024/01/04 15:40:21;;;;;;;;;;;;;;;;;;107466;1251;61244;-80
2024/01/04 15:42:48;;;;;;;;;;;;;;;;;;107410;1250;60943;-80
2024/01/04 15:45:14;;;;;;;;;;;;;;;;;;107421;1250;59924;-80
2024/01/04 15:47:40;;;;;;;;;;;;;;;;;;107547;1250;59896;-80
2024/01/04 15:50:07;;;;;;;;;;;;;;;;;;107686;1250;59863;-80
2024/01/04 15:52:33;;;;;;;;;;;;;;;;;;107680;1250;60834;-80
2024/01/04 15:54:59;;;;;;;;;;;;;;;;;;107747;1250;59974;-80
2024/01/04 15:57:26;;;;;;;;;;;;;;;;;;107671;1251;59298;-80
2024/01/04 15:59:52;;;;;;;;;;;;;;;;;;107586;1250;60361;-80
2024/01/04 16:02:18;;;;;;;;;;;;;;;;;;107670;1250;60016;-80
2024/01/04 16:04:45;;;;;;;;;;;;;;;;;;107151;1250;59819;-80
2024/01/04 16:07:11;;;;;;;;;;;;;;;;;;107018;1250;59757;-80
2024/01/04 16:09:37;;;;;;;;;;;;;;;;;;107434;1250;59820;-80
2024/01/04 16:12:04;;;;;;;;;;;;;;;;;;107472;1250;59749;-80
2024/01/04 16:14:30;;;;;;;;;;;;;;;;;;107554;1250;59792;-80
2024/01/04 16:16:56;;;;;;;;;;;;;;;;;;107491;1250;60479;-80
2024/01/04 16:19:23;;;;;;;;;;;;;;;;;;107440;1251;61072;-80
2024/01/04 16:21:49;;;;;;;;;;;;;;;;;;107036;1250;59902;-80
2024/01/04 16:24:15;;;;;;;;;;;;;;;;;;107112;1253;59804;-80